Terminal Aerodrome Forecast
Issued by NWS

Home | Current Version | Previous Version | Text Only | Print | Product List | Glossary On
Versions: 1 2 3 4 5 6 7 8 9 10 11 12 13 14 15 16 17 18 19 20 21
648
FTUS43 KJKL 180926 AAA
TAFSME
TAF AMD
KSME 180926Z 1809/1906 VRB03KT 3SM BR SKC
     FM181030 VRB03KT 1/2SM FG BKN002
     FM181330 VRB03KT P6SM SCT060=

USA.gov is the U.S. government's official web portal to all federal, state and local government web resources and services.